Time;durP1;ratioP1;P1;durP2;ratioP2;P2;SDS_P1;SDS_P2;PMS_P1;PMS_P2;Temp;Humidity;BMP_temperature;BMP_pressure;BME280_temperature;BME280_humidity;BME280_pressure;Samples;Min_cycle;Max_cycle;Signal;HPM_P1;HPM_P2
2021/07/04 00:00:57;;;;;;;6.70;3.20;;;;;;;;;;5073441;28;20024;-61
2021/07/04 00:03:23;;;;;;;4.75;2.90;;;;;;;;;;5073260;28;20020;-61
2021/07/04 00:05:50;;;;;;;4.45;3.15;;;;;;;;;;5073821;28;20024;-61
2021/07/04 00:08:23;;;;;;;4.53;2.50;;;;;;;;;;5066952;28;20028;-61
2021/07/04 00:10:51;;;;;;;5.30;2.78;;;;;;;;;;5053672;28;20024;-62
2021/07/04 00:13:17;;;;;;;5.35;2.80;;;;;;;;;;5053568;28;20024;-60
2021/07/04 00:15:43;;;;;;;4.72;2.83;;;;;;;;;;5068147;28;20024;-61
2021/07/04 00:18:11;;;;;;;4.88;2.65;;;;;;;;;;5073752;28;20078;-61
2021/07/04 00:20:37;;;;;;;3.60;2.63;;;;;;;;;;5073273;28;20045;-60
2021/07/04 00:23:03;;;;;;;3.72;2.47;;;;;;;;;;5073516;28;20604;-59
2021/07/04 00:25:29;;;;;;;3.25;2.30;;;;;;;;;;5073234;28;20100;-60
2021/07/04 00:27:56;;;;;;;2.95;2.30;;;;;;;;;;5055067;28;20478;-60
2021/07/04 00:30:22;;;;;;;2.92;2.10;;;;;;;;;;5073219;28;20056;-61
2021/07/04 00:32:48;;;;;;;3.17;2.28;;;;;;;;;;5073036;28;20074;-60
2021/07/04 00:35:16;;;;;;;3.75;2.28;;;;;;;;;;5073141;28;20525;-60
2021/07/04 00:37:42;;;;;;;3.88;2.70;;;;;;;;;;5073000;28;20025;-61
2021/07/04 00:40:09;;;;;;;3.45;2.25;;;;;;;;;;5073014;28;20070;-60
2021/07/04 00:42:35;;;;;;;2.47;1.90;;;;;;;;;;5072894;28;20472;-60
2021/07/04 00:45:02;;;;;;;2.90;2.60;;;;;;;;;;5073042;28;20056;-60
2021/07/04 00:47:28;;;;;;;2.78;2.17;;;;;;;;;;5072972;28;20021;-59
2021/07/04 00:49:54;;;;;;;3.60;2.30;;;;;;;;;;5072762;28;20020;-60
2021/07/04 00:52:21;;;;;;;5.70;2.40;;;;;;;;;;5072881;28;20055;-60
2021/07/04 00:54:47;;;;;;;3.00;2.20;;;;;;;;;;5072887;28;20025;-62
2021/07/04 00:57:13;;;;;;;2.85;2.35;;;;;;;;;;5073050;28;20421;-60
2021/07/04 00:59:39;;;;;;;3.35;2.38;;;;;;;;;;5089228;28;20600;-60
2021/07/04 01:02:05;;;;;;;3.40;2.60;;;;;;;;;;5080650;28;20095;-60
2021/07/04 01:04:31;;;;;;;4.05;2.92;;;;;;;;;;5092885;28;20012;-60
2021/07/04 01:06:57;;;;;;;5.18;2.65;;;;;;;;;;5076023;28;20382;-61
2021/07/04 01:09:24;;;;;;;3.20;2.58;;;;;;;;;;5072507;28;20075;-61
2021/07/04 01:11:50;;;;;;;7.28;3.10;;;;;;;;;;5072465;28;20021;-61
2021/07/04 01:14:17;;;;;;;4.00;3.03;;;;;;;;;;5079700;28;20020;-61
2021/07/04 01:16:44;;;;;;;5.60;3.28;;;;;;;;;;5092750;28;20099;-61
2021/07/04 01:19:11;;;;;;;5.15;3.40;;;;;;;;;;5092732;28;20023;-61
2021/07/04 01:21:39;;;;;;;4.88;3.50;;;;;;;;;;5092349;28;20121;-60
2021/07/04 01:24:06;;;;;;;5.07;3.25;;;;;;;;;;5074308;28;20490;-61
2021/07/04 01:26:32;;;;;;;5.35;3.58;;;;;;;;;;5072308;28;20016;-61
2021/07/04 01:28:58;;;;;;;5.78;3.42;;;;;;;;;;5072322;28;20027;-60
2021/07/04 01:31:24;;;;;;;5.65;3.13;;;;;;;;;;5072408;28;20542;-61
2021/07/04 01:33:50;;;;;;;4.97;3.58;;;;;;;;;;5072295;28;20025;-61
2021/07/04 01:36:17;;;;;;;4.25;3.15;;;;;;;;;;5072375;28;20021;-61
2021/07/04 01:38:43;;;;;;;4.43;3.20;;;;;;;;;;5072315;28;20029;-61
2021/07/04 01:41:09;;;;;;;4.68;3.75;;;;;;;;;;5071871;28;20059;-61
2021/07/04 01:43:35;;;;;;;5.60;3.38;;;;;;;;;;5072418;28;20099;-61
2021/07/04 01:46:01;;;;;;;5.20;3.42;;;;;;;;;;5072267;28;20021;-61
2021/07/04 01:48:27;;;;;;;4.93;3.75;;;;;;;;;;5072688;28;20074;-62
2021/07/04 01:50:54;;;;;;;5.55;3.63;;;;;;;;;;5072109;28;20025;-62
2021/07/04 01:53:21;;;;;;;5.75;4.13;;;;;;;;;;5072219;28;20391;-61
2021/07/04 01:55:47;;;;;;;4.78;3.42;;;;;;;;;;5071869;28;20624;-61
2021/07/04 01:58:13;;;;;;;5.13;3.78;;;;;;;;;;5071972;28;20510;-61
2021/07/04 02:00:40;;;;;;;5.15;3.50;;;;;;;;;;5072113;28;20471;-61
2021/07/04 02:03:09;;;;;;;6.35;3.55;;;;;;;;;;5072168;28;20071;-61
2021/07/04 02:05:35;;;;;;;6.60;3.88;;;;;;;;;;5072732;28;20490;-61
2021/07/04 02:08:01;;;;;;;6.50;3.53;;;;;;;;;;5040380;28;20021;-60
2021/07/04 02:10:28;;;;;;;5.25;3.45;;;;;;;;;;5052041;28;20033;-60
2021/07/04 02:12:55;;;;;;;6.10;3.70;;;;;;;;;;5052800;28;20026;-60
2021/07/04 02:15:22;;;;;;;5.05;4.30;;;;;;;;;;5072205;28;20130;-60
2021/07/04 02:17:49;;;;;;;5.68;3.10;;;;;;;;;;5072688;28;20090;-59
2021/07/04 02:20:33;;;;;;;6.90;3.47;;;;;;;;;;5071664;28;20461;-60
2021/07/04 02:23:00;;;;;;;5.47;3.90;;;;;;;;;;5071907;28;20024;-60
2021/07/04 02:25:26;;;;;;;6.13;3.60;;;;;;;;;;5072609;28;20020;-61
2021/07/04 02:27:52;;;;;;;5.55;3.95;;;;;;;;;;5076266;28;20017;-62
2021/07/04 02:30:18;;;;;;;6.68;3.95;;;;;;;;;;5075432;28;20107;-60
2021/07/04 02:32:44;;;;;;;8.23;4.25;;;;;;;;;;5075614;28;20071;-60
2021/07/04 02:35:11;;;;;;;6.68;4.25;;;;;;;;;;5075487;28;20048;-60
2021/07/04 02:37:37;;;;;;;8.65;4.20;;;;;;;;;;5075423;28;20053;-60
2021/07/04 02:40:04;;;;;;;6.43;3.97;;;;;;;;;;5075125;28;20024;-60
2021/07/04 02:42:30;;;;;;;7.80;4.68;;;;;;;;;;5075415;28;20074;-60
2021/07/04 02:44:58;;;;;;;7.47;4.65;;;;;;;;;;5075337;28;20029;-60
2021/07/04 02:47:24;;;;;;;7.72;4.28;;;;;;;;;;5075389;28;20485;-60
2021/07/04 02:49:50;;;;;;;6.38;4.03;;;;;;;;;;5075364;28;20032;-60
2021/07/04 02:52:16;;;;;;;7.57;4.72;;;;;;;;;;5075127;28;20146;-61
2021/07/04 02:54:42;;;;;;;8.48;4.15;;;;;;;;;;5074929;28;20036;-61
2021/07/04 02:57:08;;;;;;;5.80;4.30;;;;;;;;;;5075006;28;20599;-61
2021/07/04 02:59:35;;;;;;;7.38;4.25;;;;;;;;;;5074941;28;20099;-61
2021/07/04 03:02:01;;;;;;;6.63;3.72;;;;;;;;;;5074894;28;20029;-60
2021/07/04 03:04:27;;;;;;;8.35;4.20;;;;;;;;;;5074734;28;20028;-61
2021/07/04 03:06:55;;;;;;;6.78;4.45;;;;;;;;;;5074728;28;20086;-60
2021/07/04 03:09:21;;;;;;;6.93;3.92;;;;;;;;;;5075914;28;20661;-61
2021/07/04 03:11:47;;;;;;;8.50;4.55;;;;;;;;;;5074700;28;20044;-61
2021/07/04 03:14:13;;;;;;;6.75;3.92;;;;;;;;;;5074520;28;20040;-61
2021/07/04 03:16:39;;;;;;;11.13;3.83;;;;;;;;;;5074602;28;20039;-61
2021/07/04 03:19:05;;;;;;;7.95;4.25;;;;;;;;;;5074736;28;20494;-61
2021/07/04 03:21:31;;;;;;;7.07;4.57;;;;;;;;;;5074308;28;20048;-61
2021/07/04 03:23:57;;;;;;;7.45;4.60;;;;;;;;;;5074466;28;20020;-61
2021/07/04 03:26:23;;;;;;;4.70;3.88;;;;;;;;;;5074424;28;20027;-60
2021/07/04 03:28:50;;;;;;;6.82;4.72;;;;;;;;;;5074581;28;20388;-60
2021/07/04 03:31:16;;;;;;;6.32;4.07;;;;;;;;;;5074410;28;20471;-60
2021/07/04 03:33:42;;;;;;;7.75;4.28;;;;;;;;;;5074379;28;20028;-60
2021/07/04 03:36:08;;;;;;;9.63;4.30;;;;;;;;;;5074279;28;20518;-63
2021/07/04 03:38:34;;;;;;;7.50;3.40;;;;;;;;;;5073217;28;20052;-61
2021/07/04 03:41:00;;;;;;;6.10;3.90;;;;;;;;;;5074183;28;20531;-60
2021/07/04 03:43:26;;;;;;;7.25;3.33;;;;;;;;;;5074148;28;20020;-61
2021/07/04 03:45:53;;;;;;;5.13;3.42;;;;;;;;;;5074189;28;20074;-60
2021/07/04 03:48:19;;;;;;;4.70;3.28;;;;;;;;;;5074393;28;20027;-60
2021/07/04 03:50:45;;;;;;;4.90;3.35;;;;;;;;;;5056575;28;20059;-60
2021/07/04 03:53:11;;;;;;;5.05;3.10;;;;;;;;;;5074009;28;20039;-61
2021/07/04 03:55:38;;;;;;;5.78;3.42;;;;;;;;;;5074017;28;20442;-60
2021/07/04 03:58:04;;;;;;;5.28;3.25;;;;;;;;;;5074103;28;20031;-64
2021/07/04 04:00:30;;;;;;;6.35;3.50;;;;;;;;;;5073906;28;20024;-60
2021/07/04 04:02:56;;;;;;;4.25;3.05;;;;;;;;;;5073973;28;20378;-60
2021/07/04 04:05:23;;;;;;;5.00;2.80;;;;;;;;;;5073721;28;20064;-60
2021/07/04 04:07:49;;;;;;;4.13;2.80;;;;;;;;;;5061286;28;20544;-60
2021/07/04 04:10:15;;;;;;;5.60;2.95;;;;;;;;;;5053869;28;20033;-60
2021/07/04 04:12:42;;;;;;;4.75;2.75;;;;;;;;;;5059609;28;20083;-61
2021/07/04 04:15:09;;;;;;;5.50;2.78;;;;;;;;;;5073738;28;20028;-60
2021/07/04 04:17:36;;;;;;;4.90;2.55;;;;;;;;;;5055625;28;20275;-60
2021/07/04 04:20:03;;;;;;;6.28;2.95;;;;;;;;;;5074332;28;20028;-61
2021/07/04 04:22:29;;;;;;;6.13;2.97;;;;;;;;;;5073633;28;20112;-60
2021/07/04 04:24:55;;;;;;;4.40;3.03;;;;;;;;;;5073740;28;20021;-60
2021/07/04 04:27:21;;;;;;;3.45;2.42;;;;;;;;;;5073444;28;20028;-60
2021/07/04 04:29:47;;;;;;;3.55;2.40;;;;;;;;;;5073370;28;20020;-61
2021/07/04 04:32:13;;;;;;;5.10;2.78;;;;;;;;;;5073630;28;20024;-61
2021/07/04 04:34:39;;;;;;;5.13;2.40;;;;;;;;;;5073048;28;20431;-61
2021/07/04 04:37:06;;;;;;;4.65;2.28;;;;;;;;;;5073001;28;20426;-60
2021/07/04 04:39:32;;;;;;;3.80;2.25;;;;;;;;;;5073345;28;20479;-60
2021/07/04 04:41:58;;;;;;;4.57;2.75;;;;;;;;;;5073070;28;20446;-60
2021/07/04 04:44:24;;;;;;;4.45;2.65;;;;;;;;;;5073088;28;20379;-60
2021/07/04 04:46:50;;;;;;;3.88;2.55;;;;;;;;;;5072937;28;20471;-60
2021/07/04 04:49:16;;;;;;;3.90;2.38;;;;;;;;;;5073102;28;20434;-59
2021/07/04 04:51:43;;;;;;;3.63;2.33;;;;;;;;;;5051693;28;20395;-61
2021/07/04 04:54:09;;;;;;;4.18;3.40;;;;;;;;;;5053006;28;20479;-60
2021/07/04 04:56:35;;;;;;;4.45;2.60;;;;;;;;;;5052969;28;20032;-60
2021/07/04 04:59:01;;;;;;;5.63;2.97;;;;;;;;;;5053063;28;20032;-60
2021/07/04 05:01:28;;;;;;;3.67;2.70;;;;;;;;;;5052766;28;20032;-60
2021/07/04 05:03:55;;;;;;;3.45;2.85;;;;;;;;;;5058996;28;20025;-61
2021/07/04 05:06:21;;;;;;;5.47;2.60;;;;;;;;;;5072617;28;20021;-60
2021/07/04 05:08:47;;;;;;;5.13;2.45;;;;;;;;;;5072604;28;20023;-61
2021/07/04 05:11:13;;;;;;;4.00;2.70;;;;;;;;;;5072581;28;20051;-60
2021/07/04 05:13:40;;;;;;;4.40;3.03;;;;;;;;;;5072586;28;20029;-60
2021/07/04 05:16:06;;;;;;;5.15;3.10;;;;;;;;;;5072488;28;20043;-60
2021/07/04 05:18:33;;;;;;;4.10;2.88;;;;;;;;;;5072396;28;20025;-61
2021/07/04 05:20:59;;;;;;;5.35;3.15;;;;;;;;;;5072169;28;20049;-61
2021/07/04 05:23:25;;;;;;;6.22;3.38;;;;;;;;;;5072522;28;20078;-60
2021/07/04 05:25:53;;;;;;;5.13;3.15;;;;;;;;;;5072435;28;20027;-60
2021/07/04 05:28:20;;;;;;;4.47;2.92;;;;;;;;;;5072401;28;20021;-61
2021/07/04 05:30:46;;;;;;;5.55;3.28;;;;;;;;;;5072372;28;20033;-60
2021/07/04 05:33:12;;;;;;;5.47;3.45;;;;;;;;;;5072233;28;20025;-61
2021/07/04 05:35:39;;;;;;;6.95;4.07;;;;;;;;;;5072606;28;20570;-61
2021/07/04 05:38:05;;;;;;;5.88;3.45;;;;;;;;;;5072073;28;20040;-60
2021/07/04 05:40:31;;;;;;;5.75;3.78;;;;;;;;;;5072315;28;20024;-60
2021/07/04 05:42:58;;;;;;;10.10;4.85;;;;;;;;;;5072274;28;20024;-60
2021/07/04 05:45:25;;;;;;;7.10;4.03;;;;;;;;;;5072209;28;20498;-60
2021/07/04 05:47:51;;;;;;;11.15;4.60;;;;;;;;;;5072137;28;20025;-60
2021/07/04 05:50:18;;;;;;;10.32;4.90;;;;;;;;;;5065155;28;20029;-60
2021/07/04 05:52:45;;;;;;;6.45;4.55;;;;;;;;;;5052126;28;20507;-61
2021/07/04 05:55:12;;;;;;;8.32;4.30;;;;;;;;;;5062711;28;20107;-60
2021/07/04 05:57:38;;;;;;;9.65;4.43;;;;;;;;;;5072126;28;20029;-60
2021/07/04 06:00:05;;;;;;;7.25;4.70;;;;;;;;;;5072417;28;20029;-60
2021/07/04 06:02:31;;;;;;;7.43;3.80;;;;;;;;;;5076001;28;20024;-60
2021/07/04 06:04:57;;;;;;;9.25;4.95;;;;;;;;;;5058068;28;20021;-59
2021/07/04 06:07:23;;;;;;;8.05;4.03;;;;;;;;;;5076097;28;20052;-60
2021/07/04 06:09:49;;;;;;;11.77;4.95;;;;;;;;;;5075904;28;20048;-61
2021/07/04 06:12:15;;;;;;;7.43;4.18;;;;;;;;;;5075872;28;20028;-60
2021/07/04 06:14:41;;;;;;;7.68;4.07;;;;;;;;;;5075891;28;20113;-60
2021/07/04 06:17:08;;;;;;;7.72;4.57;;;;;;;;;;5075398;28;20016;-61
2021/07/04 06:19:34;;;;;;;9.70;5.03;;;;;;;;;;5076942;28;20110;-60
2021/07/04 06:22:00;;;;;;;9.65;4.95;;;;;;;;;;5075706;28;20045;-61
2021/07/04 06:24:26;;;;;;;10.95;4.97;;;;;;;;;;5075651;28;20466;-61
2021/07/04 06:26:52;;;;;;;10.40;4.50;;;;;;;;;;5075674;28;20103;-60
2021/07/04 06:29:18;;;;;;;7.10;4.85;;;;;;;;;;5075419;28;20071;-60
2021/07/04 06:31:44;;;;;;;8.93;4.90;;;;;;;;;;5075356;28;20021;-60
2021/07/04 06:34:10;;;;;;;8.05;4.75;;;;;;;;;;5075520;28;20082;-60
2021/07/04 06:36:37;;;;;;;9.25;4.53;;;;;;;;;;5075528;28;20028;-60
2021/07/04 06:39:03;;;;;;;8.88;4.90;;;;;;;;;;5075395;28;20052;-60
2021/07/04 06:41:29;;;;;;;10.88;5.75;;;;;;;;;;5075448;28;20359;-60
2021/07/04 06:43:55;;;;;;;7.60;4.43;;;;;;;;;;5075375;28;20017;-60
2021/07/04 06:46:21;;;;;;;11.38;4.85;;;;;;;;;;5074955;28;20029;-60
2021/07/04 06:48:47;;;;;;;12.57;5.13;;;;;;;;;;5075176;28;20475;-60
2021/07/04 06:51:13;;;;;;;8.13;4.90;;;;;;;;;;5060469;28;20037;-60
2021/07/04 06:53:39;;;;;;;7.05;4.30;;;;;;;;;;5055203;28;20476;-60
2021/07/04 06:56:05;;;;;;;7.82;4.78;;;;;;;;;;5055136;28;20029;-61
2021/07/04 06:58:32;;;;;;;8.65;5.00;;;;;;;;;;5055134;28;20025;-60
2021/07/04 07:00:58;;;;;;;10.35;4.70;;;;;;;;;;5054825;28;20029;-60
2021/07/04 07:03:24;;;;;;;7.63;4.38;;;;;;;;;;5067231;28;20012;-60
2021/07/04 07:05:50;;;;;;;8.60;5.15;;;;;;;;;;5074962;28;20048;-60
2021/07/04 07:08:16;;;;;;;8.80;4.57;;;;;;;;;;5074995;28;20020;-59
2021/07/04 07:10:42;;;;;;;7.78;4.25;;;;;;;;;;5074668;28;20059;-61
2021/07/04 07:13:08;;;;;;;8.05;5.00;;;;;;;;;;5073445;28;20035;-60
2021/07/04 07:15:34;;;;;;;9.05;5.22;;;;;;;;;;5074703;28;20016;-61
2021/07/04 07:18:00;;;;;;;9.38;4.70;;;;;;;;;;5076278;28;20099;-63
2021/07/04 07:20:26;;;;;;;12.15;5.07;;;;;;;;;;5073785;28;20060;-61
2021/07/04 07:22:53;;;;;;;12.35;4.75;;;;;;;;;;5074681;28;20029;-61
2021/07/04 07:25:19;;;;;;;6.47;4.60;;;;;;;;;;5062802;28;20557;-61
2021/07/04 07:27:45;;;;;;;9.55;5.15;;;;;;;;;;5071517;28;20025;-61
2021/07/04 07:30:12;;;;;;;10.40;4.45;;;;;;;;;;5055309;28;20075;-61
2021/07/04 07:32:39;;;;;;;11.65;4.90;;;;;;;;;;5073306;28;20024;-61
2021/07/04 07:35:06;;;;;;;8.35;4.55;;;;;;;;;;5074620;28;20025;-61
2021/07/04 07:37:32;;;;;;;9.35;4.68;;;;;;;;;;5073711;28;20389;-61
2021/07/04 07:39:58;;;;;;;8.02;4.50;;;;;;;;;;5073295;28;20170;-61
2021/07/04 07:42:24;;;;;;;10.50;3.90;;;;;;;;;;5073648;28;20078;-61
2021/07/04 07:44:50;;;;;;;8.00;4.30;;;;;;;;;;5074311;28;20078;-61
2021/07/04 07:47:16;;;;;;;12.90;5.18;;;;;;;;;;5073387;28;20039;-61
2021/07/04 07:49:42;;;;;;;9.65;4.20;;;;;;;;;;5055726;28;20538;-61
2021/07/04 07:52:08;;;;;;;8.15;3.92;;;;;;;;;;5074022;28;20107;-61
2021/07/04 07:54:35;;;;;;;9.23;4.30;;;;;;;;;;5073408;28;20047;-62
2021/07/04 07:57:04;;;;;;;8.57;4.40;;;;;;;;;;5073565;28;20027;-61
2021/07/04 07:59:30;;;;;;;6.82;3.75;;;;;;;;;;5074139;28;20024;-61
2021/07/04 08:01:57;;;;;;;6.53;4.03;;;;;;;;;;5073807;28;20028;-61
2021/07/04 08:04:24;;;;;;;4.80;3.28;;;;;;;;;;5074021;28;20059;-61
2021/07/04 08:06:50;;;;;;;5.93;3.47;;;;;;;;;;5073744;28;20486;-61
2021/07/04 08:09:16;;;;;;;7.70;3.50;;;;;;;;;;5073681;28;20025;-61
2021/07/04 08:11:42;;;;;;;7.05;3.70;;;;;;;;;;5074138;28;20818;-61
2021/07/04 08:14:08;;;;;;;8.35;3.20;;;;;;;;;;5073299;28;20024;-61
2021/07/04 08:16:35;;;;;;;5.65;3.58;;;;;;;;;;5091512;28;20055;-60
2021/07/04 08:19:01;;;;;;;6.35;3.35;;;;;;;;;;5075106;28;20046;-61
2021/07/04 08:21:28;;;;;;;5.28;2.95;;;;;;;;;;5072899;28;20049;-61
2021/07/04 08:23:55;;;;;;;4.20;3.05;;;;;;;;;;5072541;28;20032;-61
2021/07/04 08:26:21;;;;;;;7.13;2.80;;;;;;;;;;5072581;28;20032;-61
2021/07/04 08:28:47;;;;;;;4.03;3.03;;;;;;;;;;5071924;28;20040;-61
2021/07/04 08:31:13;;;;;;;6.15;3.47;;;;;;;;;;5072772;28;20040;-61
2021/07/04 08:33:40;;;;;;;6.00;2.97;;;;;;;;;;5084375;28;20382;-61
2021/07/04 08:36:06;;;;;;;5.82;3.03;;;;;;;;;;5093432;28;20028;-62
2021/07/04 08:38:32;;;;;;;5.50;2.90;;;;;;;;;;5074656;28;20020;-62
2021/07/04 08:40:58;;;;;;;5.43;2.47;;;;;;;;;;5072854;28;20029;-62
2021/07/04 08:43:29;;;;;;;3.50;2.70;;;;;;;;;;5072886;28;20103;-61
2021/07/04 08:45:55;;;;;;;5.15;2.65;;;;;;;;;;5072690;28;20025;-62
2021/07/04 08:48:21;;;;;;;4.05;2.50;;;;;;;;;;5054823;28;20032;-61
2021/07/04 08:50:47;;;;;;;11.38;2.80;;;;;;;;;;5080368;28;20052;-61
2021/07/04 08:53:13;;;;;;;4.47;3.22;;;;;;;;;;5072506;28;20033;-61
2021/07/04 08:55:42;;;;;;;6.10;3.20;;;;;;;;;;5072631;28;20078;-61
2021/07/04 08:58:08;;;;;;;5.30;2.95;;;;;;;;;;5072613;28;20035;-60
2021/07/04 09:00:34;;;;;;;3.97;2.72;;;;;;;;;;5072527;28;20386;-62
2021/07/04 09:03:01;;;;;;;6.10;3.03;;;;;;;;;;5072670;28;20048;-63
2021/07/04 09:05:42;;;;;;;5.97;2.38;;;;;;;;;;5072559;28;20020;-62
2021/07/04 09:08:21;;;;;;;3.97;2.70;;;;;;;;;;5072516;28;20020;-62
2021/07/04 09:11:06;;;;;;;4.53;2.78;;;;;;;;;;5072480;28;20029;-62
2021/07/04 09:13:32;;;;;;;3.65;2.40;;;;;;;;;;5072471;28;20050;-62
2021/07/04 09:16:07;;;;;;;4.28;2.80;;;;;;;;;;5072469;28;20108;-63
2021/07/04 09:18:33;;;;;;;4.25;2.60;;;;;;;;;;5072857;28;20021;-62
2021/07/04 09:20:59;;;;;;;4.15;2.53;;;;;;;;;;5053295;28;20049;-62
2021/07/04 09:23:32;;;;;;;3.33;2.35;;;;;;;;;;5057234;28;20032;-62
2021/07/04 09:25:58;;;;;;;6.07;2.95;;;;;;;;;;5072346;28;20073;-61
2021/07/04 09:28:24;;;;;;;3.47;2.55;;;;;;;;;;5071776;28;20100;-60
2021/07/04 09:30:50;;;;;;;7.32;2.65;;;;;;;;;;5088603;28;20493;-60
2021/07/04 09:33:24;;;;;;;8.32;2.72;;;;;;;;;;5089445;28;20483;-61
2021/07/04 09:35:54;;;;;;;6.35;3.58;;;;;;;;;;5071093;28;20052;-62
2021/07/04 09:38:21;;;;;;;3.55;2.40;;;;;;;;;;5072081;28;20028;-60
2021/07/04 09:40:48;;;;;;;4.97;2.13;;;;;;;;;;5072096;28;20051;-61
2021/07/04 09:43:15;;;;;;;2.90;2.40;;;;;;;;;;5072162;28;20035;-61
2021/07/04 09:45:46;;;;;;;3.13;2.42;;;;;;;;;;5076991;28;20154;-61
2021/07/04 09:48:12;;;;;;;4.28;2.20;;;;;;;;;;5092209;28;20103;-61
2021/07/04 09:50:40;;;;;;;4.00;3.03;;;;;;;;;;5080091;28;20024;-61
2021/07/04 09:53:06;;;;;;;6.75;3.28;;;;;;;;;;5071022;28;20035;-61
2021/07/04 09:55:32;;;;;;;5.80;2.53;;;;;;;;;;5071371;28;20065;-61
2021/07/04 09:58:03;;;;;;;3.45;2.40;;;;;;;;;;5071043;28;20036;-61
2021/07/04 10:00:30;;;;;;;4.25;2.55;;;;;;;;;;5053709;28;20107;-61
2021/07/04 10:03:16;;;;;;;2.92;2.13;;;;;;;;;;5071115;28;20020;-60
2021/07/04 10:05:44;;;;;;;5.53;2.40;;;;;;;;;;5071751;28;20027;-61
2021/07/04 10:08:29;;;;;;;4.22;2.40;;;;;;;;;;5071857;28;20017;-60
2021/07/04 10:11:00;;;;;;;4.80;2.80;;;;;;;;;;5071119;28;20028;-61
2021/07/04 10:13:27;;;;;;;2.72;2.38;;;;;;;;;;5071332;28;20115;-61
2021/07/04 10:15:53;;;;;;;4.30;3.47;;;;;;;;;;5071726;28;20112;-60
2021/07/04 10:18:20;;;;;;;4.50;2.58;;;;;;;;;;5070310;28;20498;-62
2021/07/04 10:20:48;;;;;;;5.93;2.67;;;;;;;;;;5070070;28;20410;-60
2021/07/04 10:23:24;;;;;;;6.50;2.75;;;;;;;;;;5071362;28;20028;-61
2021/07/04 10:25:51;;;;;;;5.13;2.85;;;;;;;;;;5070973;28;20028;-61
2021/07/04 10:28:37;;;;;;;4.95;2.70;;;;;;;;;;5071098;28;20032;-61
2021/07/04 10:31:05;;;;;;;3.70;3.00;;;;;;;;;;5071372;28;20020;-61
2021/07/04 10:33:35;;;;;;;3.97;2.60;;;;;;;;;;5071261;28;20533;-61
2021/07/04 10:36:09;;;;;;;10.07;2.72;;;;;;;;;;5071936;28;20112;-60
2021/07/04 10:38:44;;;;;;;4.53;2.42;;;;;;;;;;5072506;28;20381;-62
2021/07/04 10:41:11;;;;;;;4.40;3.03;;;;;;;;;;5071037;28;20028;-63
2021/07/04 10:43:48;;;;;;;4.45;3.10;;;;;;;;;;5057065;28;20021;-62
2021/07/04 10:46:14;;;;;;;5.70;2.60;;;;;;;;;;5071754;28;20028;-62
2021/07/04 10:48:57;;;;;;;4.82;2.50;;;;;;;;;;5074825;28;20016;-60
2021/07/04 10:51:23;;;;;;;5.68;2.63;;;;;;;;;;5074399;28;20035;-63
2021/07/04 10:53:49;;;;;;;5.03;2.67;;;;;;;;;;5074512;28;20497;-63
2021/07/04 10:56:34;;;;;;;4.22;2.78;;;;;;;;;;5073962;28;20119;-62
2021/07/04 10:59:03;;;;;;;3.65;2.47;;;;;;;;;;5073981;28;20024;-61
2021/07/04 11:01:48;;;;;;;3.58;2.30;;;;;;;;;;5073655;28;20036;-61
2021/07/04 11:04:29;;;;;;;4.43;2.60;;;;;;;;;;5074308;28;20030;-62
2021/07/04 11:06:57;;;;;;;6.15;2.75;;;;;;;;;;5073959;28;20073;-61
2021/07/04 11:09:23;;;;;;;3.85;2.70;;;;;;;;;;5072964;28;20100;-61
2021/07/04 11:11:49;;;;;;;4.82;2.70;;;;;;;;;;5074229;28;20021;-61
2021/07/04 11:14:15;;;;;;;5.47;2.80;;;;;;;;;;5074015;28;20064;-61
2021/07/04 11:17:00;;;;;;;4.45;2.40;;;;;;;;;;5074197;28;20374;-61
2021/07/04 11:19:26;;;;;;;4.90;2.95;;;;;;;;;;5068697;28;20025;-61
2021/07/04 11:21:56;;;;;;;3.83;2.78;;;;;;;;;;5071964;28;20040;-61
2021/07/04 11:24:23;;;;;;;4.25;2.47;;;;;;;;;;5073340;28;20074;-61
2021/07/04 11:27:08;;;;;;;4.50;2.50;;;;;;;;;;5072740;28;20060;-61
2021/07/04 11:29:34;;;;;;;4.50;2.58;;;;;;;;;;5071084;28;20103;-61
2021/07/04 11:32:19;;;;;;;3.47;2.67;;;;;;;;;;5075089;28;20032;-59
2021/07/04 11:34:49;;;;;;;5.60;2.60;;;;;;;;;;5055640;28;20073;-60
2021/07/04 11:37:15;;;;;;;4.15;2.63;;;;;;;;;;5055385;28;20186;-60
2021/07/04 11:39:41;;;;;;;3.40;2.53;;;;;;;;;;5073936;28;20032;-61
2021/07/04 11:42:07;;;;;;;5.85;2.40;;;;;;;;;;5073801;28;20207;-62
2021/07/04 11:44:33;;;;;;;4.97;2.85;;;;;;;;;;5072961;28;20016;-61
2021/07/04 11:46:59;;;;;;;4.40;2.75;;;;;;;;;;5073425;28;20028;-62
2021/07/04 11:49:27;;;;;;;4.85;2.40;;;;;;;;;;5074560;28;20017;-61
2021/07/04 11:51:58;;;;;;;3.63;2.65;;;;;;;;;;5062488;28;20024;-61
2021/07/04 11:54:26;;;;;;;3.67;2.72;;;;;;;;;;5055465;28;20386;-62
2021/07/04 12:00:03;;;;;;;3.72;2.45;;;;;;;;;;5066579;28;20047;-60
2021/07/04 12:02:29;;;;;;;3.50;2.70;;;;;;;;;;5073507;28;20029;-60
2021/07/04 12:04:56;;;;;;;3.97;2.95;;;;;;;;;;5073671;28;20025;-60
2021/07/04 12:07:23;;;;;;;3.10;2.30;;;;;;;;;;5073743;28;20047;-60
2021/07/04 12:09:50;;;;;;;4.75;2.38;;;;;;;;;;5073457;28;20486;-61
2021/07/04 12:12:18;;;;;;;4.93;2.22;;;;;;;;;;5073587;28;20109;-60
2021/07/04 12:14:45;;;;;;;3.50;2.50;;;;;;;;;;5073569;28;20029;-60
2021/07/04 12:17:17;;;;;;;4.22;2.45;;;;;;;;;;5073616;28;20024;-60
2021/07/04 12:19:44;;;;;;;4.38;2.30;;;;;;;;;;5063057;28;20112;-60
2021/07/04 12:22:12;;;;;;;4.18;2.08;;;;;;;;;;5053121;28;20467;-60
2021/07/04 12:24:42;;;;;;;2.75;1.98;;;;;;;;;;5053390;28;20024;-60
2021/07/04 12:27:09;;;;;;;3.20;1.90;;;;;;;;;;5070022;28;20025;-60
2021/07/04 12:29:54;;;;;;;3.15;2.00;;;;;;;;;;5049490;28;20770;-60
2021/07/04 12:32:20;;;;;;;4.00;2.10;;;;;;;;;;5068692;28;20143;-60
2021/07/04 12:34:46;;;;;;;4.20;2.00;;;;;;;;;;5072573;28;20029;-60
2021/07/04 12:37:12;;;;;;;2.88;1.88;;;;;;;;;;5076416;28;20382;-60
2021/07/04 12:39:45;;;;;;;4.75;2.45;;;;;;;;;;5089971;28;20017;-60
2021/07/04 12:42:21;;;;;;;3.13;1.92;;;;;;;;;;5072717;28;20086;-60
2021/07/04 12:45:13;;;;;;;3.60;2.22;;;;;;;;;;5072929;28;20478;-61
2021/07/04 12:47:40;;;;;;;2.05;1.80;;;;;;;;;;5069997;28;20068;-60
2021/07/04 12:50:08;;;;;;;2.50;2.20;;;;;;;;;;5072722;28;20074;-60
2021/07/04 12:52:35;;;;;;;4.13;2.60;;;;;;;;;;5072683;28;20020;-61
2021/07/04 12:55:01;;;;;;;2.90;2.55;;;;;;;;;;5072708;28;20025;-60
2021/07/04 12:57:32;;;;;;;3.00;2.20;;;;;;;;;;5072531;28;20042;-61
2021/07/04 13:00:14;;;;;;;2.90;1.80;;;;;;;;;;5072349;28;20025;-61
2021/07/04 13:02:44;;;;;;;3.88;2.05;;;;;;;;;;5072644;28;20044;-60
2021/07/04 13:05:11;;;;;;;2.03;1.83;;;;;;;;;;5071833;28;20387;-61
2021/07/04 13:07:44;;;;;;;3.05;2.03;;;;;;;;;;5071230;28;20029;-61
2021/07/04 13:10:11;;;;;;;4.22;2.20;;;;;;;;;;5052316;28;20434;-60
2021/07/04 13:12:38;;;;;;;2.40;2.08;;;;;;;;;;5065969;28;20025;-61
2021/07/04 13:15:07;;;;;;;3.58;2.85;;;;;;;;;;5071896;28;20024;-61
2021/07/04 13:17:42;;;;;;;5.65;2.10;;;;;;;;;;5073021;28;20024;-62
2021/07/04 13:20:23;;;;;;;4.05;2.25;;;;;;;;;;5067796;28;20021;-62
2021/07/04 13:22:50;;;;;;;3.60;2.40;;;;;;;;;;5071781;28;20021;-61
2021/07/04 13:25:18;;;;;;;3.05;2.40;;;;;;;;;;5072400;28;20024;-60
2021/07/04 13:27:51;;;;;;;3.35;2.10;;;;;;;;;;5071894;28;20020;-61
2021/07/04 13:30:19;;;;;;;3.50;1.90;;;;;;;;;;5071967;28;20101;-61
2021/07/04 13:32:59;;;;;;;2.72;1.63;;;;;;;;;;5071737;28;20098;-60
2021/07/04 13:35:28;;;;;;;2.58;2.10;;;;;;;;;;5071668;28;20024;-60
2021/07/04 13:37:56;;;;;;;2.45;2.25;;;;;;;;;;5071870;28;20021;-61
2021/07/04 13:40:23;;;;;;;2.10;1.67;;;;;;;;;;5071421;28;20028;-61
2021/07/04 13:42:53;;;;;;;2.42;2.20;;;;;;;;;;5071084;28;20025;-61
2021/07/04 13:45:26;;;;;;;2.20;2.00;;;;;;;;;;5072115;28;20028;-60
2021/07/04 13:47:53;;;;;;;2.60;2.33;;;;;;;;;;5071784;28;20085;-61
2021/07/04 13:50:20;;;;;;;2.05;1.90;;;;;;;;;;5070728;28;20081;-62
2021/07/04 13:52:46;;;;;;;2.53;1.90;;;;;;;;;;5053350;28;20039;-61
2021/07/04 13:55:12;;;;;;;1.70;1.60;;;;;;;;;;5071361;28;20471;-62
2021/07/04 13:57:38;;;;;;;1.83;1.73;;;;;;;;;;5053272;28;20039;-61
2021/07/04 14:00:06;;;;;;;2.72;1.80;;;;;;;;;;5071294;28;20035;-61
2021/07/04 14:02:32;;;;;;;2.20;2.00;;;;;;;;;;5071512;28;20028;-62
2021/07/04 14:04:58;;;;;;;3.55;1.98;;;;;;;;;;5071122;28;20028;-62
2021/07/04 14:07:24;;;;;;;2.42;2.00;;;;;;;;;;5071260;28;20031;-62
2021/07/04 14:09:50;;;;;;;2.10;1.90;;;;;;;;;;5071777;28;20021;-62
2021/07/04 14:12:16;;;;;;;2.10;1.90;;;;;;;;;;5071443;28;20379;-62
2021/07/04 14:14:43;;;;;;;3.08;1.98;;;;;;;;;;5071491;28;20020;-62
2021/07/04 14:17:09;;;;;;;3.50;1.80;;;;;;;;;;5071848;28;20029;-62
2021/07/04 14:19:36;;;;;;;1.83;1.73;;;;;;;;;;5069354;28;20090;-61
2021/07/04 14:22:02;;;;;;;2.60;2.13;;;;;;;;;;5072979;28;20040;-62
2021/07/04 14:24:29;;;;;;;2.28;2.00;;;;;;;;;;5074948;28;20044;-61
2021/07/04 14:26:56;;;;;;;2.30;1.95;;;;;;;;;;5075156;28;20364;-62
2021/07/04 14:29:22;;;;;;;2.47;2.22;;;;;;;;;;5075630;28;20023;-62
2021/07/04 14:31:49;;;;;;;3.15;2.10;;;;;;;;;;5075184;28;20050;-62
2021/07/04 14:34:15;;;;;;;3.10;2.00;;;;;;;;;;5075372;28;20392;-62
2021/07/04 14:36:42;;;;;;;2.30;2.10;;;;;;;;;;5056862;28;20082;-61
2021/07/04 14:39:09;;;;;;;1.90;1.80;;;;;;;;;;5074728;28;20044;-62
2021/07/04 14:41:36;;;;;;;2.58;2.10;;;;;;;;;;5074910;28;20024;-63
2021/07/04 14:44:04;;;;;;;2.20;2.00;;;;;;;;;;5074720;28;20020;-63
2021/07/04 14:46:30;;;;;;;2.17;1.98;;;;;;;;;;5075089;28;20032;-63
2021/07/04 14:48:56;;;;;;;2.35;2.10;;;;;;;;;;5075246;28;20029;-62